Time;durP1;ratioP1;P1;durP2;ratioP2;P2;SDS_P1;SDS_P2;PMS_P1;PMS_P2;Temp;Humidity;BMP_temperature;BMP_pressure;BME280_temperature;BME280_humidity;BME280_pressure;Samples;Min_cycle;Max_cycle;Signal;HPM_P1;HPM_P2
2023/07/24 00:00:41;;;;;;;1.38;1.27;;;20.90;67.00;;;;;;5115460;28;20176;-71
2023/07/24 00:03:06;;;;;;;2.67;1.70;;;20.90;67.00;;;;;;5115629;28;20169;-69
2023/07/24 00:05:32;;;;;;;1.70;1.35;;;20.90;67.00;;;;;;5115345;28;20199;-69
2023/07/24 00:07:57;;;;;;;1.52;1.25;;;20.90;67.00;;;;;;5115934;28;20178;-68
2023/07/24 00:10:23;;;;;;;3.35;1.90;;;20.90;67.00;;;;;;5116158;28;20286;-68
2023/07/24 00:12:48;;;;;;;1.55;1.13;;;20.90;67.00;;;;;;5115280;28;20217;-69
2023/07/24 00:15:14;;;;;;;1.60;1.50;;;20.90;66.90;;;;;;5115941;28;20170;-69
2023/07/24 00:17:39;;;;;;;1.98;1.27;;;20.90;67.00;;;;;;5115912;28;20309;-69
2023/07/24 00:20:06;;;;;;;1.77;1.40;;;20.90;67.10;;;;;;5096610;28;20222;-69
2023/07/24 00:22:31;;;;;;;1.35;1.25;;;20.90;67.00;;;;;;5115686;28;20184;-69
2023/07/24 00:24:57;;;;;;;1.58;1.48;;;20.90;66.90;;;;;;5114587;28;20181;-69
2023/07/24 00:27:23;;;;;;;1.58;1.30;;;20.80;66.90;;;;;;5115127;28;20260;-69
2023/07/24 00:29:48;;;;;;;1.20;1.20;;;20.90;66.90;;;;;;5115576;28;20252;-71
2023/07/24 00:32:14;;;;;;;2.35;1.67;;;20.90;66.90;;;;;;5115020;28;20211;-69
2023/07/24 00:34:39;;;;;;;2.10;1.40;;;20.90;66.90;;;;;;5114889;28;20208;-70
2023/07/24 00:37:05;;;;;;;2.13;1.50;;;20.90;67.00;;;;;;5115425;28;20252;-70
2023/07/24 00:39:31;;;;;;;1.60;1.38;;;20.90;66.90;;;;;;5115734;28;20217;-69
2023/07/24 00:41:56;;;;;;;1.55;1.40;;;20.90;66.90;;;;;;5113807;28;20554;-70
2023/07/24 00:44:22;;;;;;;1.48;1.17;;;20.90;66.90;;;;;;5115637;28;20173;-68
2023/07/24 00:46:47;;;;;;;2.42;1.40;;;20.90;66.90;;;;;;5115490;28;20562;-69
2023/07/24 00:49:13;;;;;;;1.48;1.35;;;20.80;66.80;;;;;;5114291;28;20259;-68
2023/07/24 00:51:38;;;;;;;1.40;1.30;;;20.80;66.90;;;;;;5114563;28;20209;-68
2023/07/24 00:54:04;;;;;;;1.55;1.45;;;20.80;66.90;;;;;;5115154;28;20168;-68
2023/07/24 00:56:30;;;;;;;1.30;1.10;;;20.80;66.90;;;;;;5096433;28;20177;-69
2023/07/24 00:58:56;;;;;;;1.30;1.20;;;20.90;66.90;;;;;;5114941;28;20217;-72
2023/07/24 01:01:21;;;;;;;1.70;1.60;;;20.80;66.90;;;;;;5095461;28;20252;-70
2023/07/24 01:03:47;;;;;;;1.77;1.40;;;20.80;66.90;;;;;;5095859;28;20268;-71
2023/07/24 01:06:12;;;;;;;1.70;1.30;;;20.90;66.90;;;;;;5115017;28;20188;-69
2023/07/24 01:08:40;;;;;;;1.27;1.17;;;20.80;66.80;;;;;;5114878;28;20173;-68
2023/07/24 01:11:14;;;;;;;1.52;1.42;;;20.80;66.80;;;;;;5114070;28;20212;-69
2023/07/24 01:13:41;;;;;;;1.52;1.42;;;20.80;66.80;;;;;;5096764;28;20236;-69
2023/07/24 01:16:13;;;;;;;1.83;1.67;;;20.80;66.70;;;;;;5095435;28;20173;-69
2023/07/24 01:18:39;;;;;;;1.65;1.55;;;20.80;66.70;;;;;;5114723;28;20184;-70
2023/07/24 01:21:05;;;;;;;1.48;1.38;;;20.80;66.80;;;;;;5114348;28;20169;-69
2023/07/24 01:23:50;;;;;;;1.30;1.20;;;20.80;66.70;;;;;;5095776;28;20181;-68
2023/07/24 01:26:16;;;;;;;1.73;1.40;;;20.80;66.70;;;;;;5114200;28;20518;-69
2023/07/24 01:28:41;;;;;;;1.30;1.20;;;20.80;66.70;;;;;;5096286;28;20176;-69
2023/07/24 01:31:07;;;;;;;1.50;1.35;;;20.80;66.70;;;;;;5113389;28;20226;-68
2023/07/24 01:33:35;;;;;;;1.52;1.42;;;20.80;66.70;;;;;;5114504;28;20675;-70
2023/07/24 01:36:02;;;;;;;1.50;1.40;;;20.90;67.60;;;;;;5096191;28;20184;-70
2023/07/24 01:38:27;;;;;;;1.15;1.10;;;20.80;66.70;;;;;;5113797;28;20709;-71
2023/07/24 01:40:54;;;;;;;1.30;1.20;;;20.90;66.70;;;;;;5096046;28;20221;-71
2023/07/24 01:43:19;;;;;;;1.42;1.30;;;20.80;66.70;;;;;;5113812;28;20188;-69
2023/07/24 01:45:45;;;;;;;1.40;1.30;;;20.80;66.70;;;;;;5113694;28;20162;-69
2023/07/24 01:48:10;;;;;;;1.92;1.38;;;20.80;66.70;;;;;;5113743;28;20177;-68
2023/07/24 01:50:36;;;;;;;2.08;1.30;;;20.80;67.50;;;;;;5113960;28;20181;-68
2023/07/24 01:53:01;;;;;;;1.77;1.30;;;20.80;66.70;;;;;;5112913;28;20212;-68
2023/07/24 01:55:27;;;;;;;1.30;1.20;;;20.80;66.70;;;;;;5114085;28;20173;-69
2023/07/24 01:57:52;;;;;;;1.40;1.30;;;20.80;66.70;;;;;;5113655;28;20585;-71
2023/07/24 02:00:18;;;;;;;1.23;1.13;;;20.80;66.70;;;;;;5113095;28;20658;-71
2023/07/24 02:02:43;;;;;;;2.60;1.15;;;20.80;66.60;;;;;;5114121;28;20695;-70
2023/07/24 02:05:09;;;;;;;1.30;1.20;;;20.80;66.70;;;;;;5113054;28;20663;-69
2023/07/24 02:07:35;;;;;;;1.42;1.30;;;20.80;66.70;;;;;;5113772;28;20604;-69
2023/07/24 02:10:00;;;;;;;1.40;1.30;;;20.80;66.70;;;;;;5113486;28;20177;-69
2023/07/24 02:12:26;;;;;;;1.38;1.27;;;20.80;66.70;;;;;;5112642;28;20675;-69
2023/07/24 02:14:52;;;;;;;1.20;1.10;;;20.80;66.60;;;;;;5113882;28;20647;-69
2023/07/24 02:17:18;;;;;;;1.27;1.17;;;20.80;66.70;;;;;;5113493;28;20641;-69
2023/07/24 02:19:43;;;;;;;1.90;1.27;;;20.80;67.50;;;;;;5112942;28;20172;-70
2023/07/24 02:22:09;;;;;;;1.35;1.10;;;20.80;66.70;;;;;;5113270;28;20524;-69
2023/07/24 02:24:35;;;;;;;1.30;1.20;;;20.80;66.60;;;;;;5113671;28;20636;-69
2023/07/24 02:27:00;;;;;;;1.70;1.38;;;20.80;66.60;;;;;;5112442;28;20203;-70
2023/07/24 02:29:26;;;;;;;1.70;1.40;;;20.80;66.60;;;;;;5113690;28;20259;-69
2023/07/24 02:31:52;;;;;;;3.30;1.38;;;20.80;66.70;;;;;;5113552;28;20204;-70
2023/07/24 02:34:18;;;;;;;1.33;1.23;;;20.80;66.60;;;;;;5112437;28;20189;-68
2023/07/24 02:36:44;;;;;;;1.23;1.13;;;20.80;66.70;;;;;;5113044;28;20195;-70
2023/07/24 02:39:09;;;;;;;1.27;1.17;;;20.80;67.50;;;;;;5112539;28;20334;-70
2023/07/24 02:41:35;;;;;;;1.25;1.15;;;20.80;66.60;;;;;;5112459;28;20173;-70
2023/07/24 02:44:01;;;;;;;1.00;1.00;;;20.80;66.60;;;;;;5112707;28;20233;-69
2023/07/24 02:46:28;;;;;;;1.30;1.20;;;20.80;66.60;;;;;;5095207;28;20173;-68
2023/07/24 02:48:54;;;;;;;1.50;1.40;;;20.80;66.60;;;;;;5112208;28;20569;-68
2023/07/24 02:51:19;;;;;;;1.20;1.10;;;20.80;66.60;;;;;;5112718;28;20173;-68
2023/07/24 02:53:45;;;;;;;1.90;1.35;;;20.80;66.60;;;;;;5113024;28;20640;-68
2023/07/24 02:56:10;;;;;;;1.67;1.58;;;20.80;66.60;;;;;;5111777;28;20218;-69
2023/07/24 02:58:36;;;;;;;1.33;1.23;;;20.80;66.60;;;;;;5113087;28;20173;-71
2023/07/24 03:01:06;;;;;;;2.13;1.30;;;20.80;66.60;;;;;;5112807;28;20169;-70
2023/07/24 03:03:35;;;;;;;1.58;1.48;;;20.80;66.60;;;;;;5112413;28;20193;-69
2023/07/24 03:06:00;;;;;;;1.20;1.10;;;20.80;66.50;;;;;;5112597;28;20234;-68
2023/07/24 03:08:26;;;;;;;1.58;1.02;;;20.80;66.60;;;;;;5111960;28;20169;-69
2023/07/24 03:10:51;;;;;;;1.23;1.13;;;20.80;66.50;;;;;;5112683;28;20260;-69
2023/07/24 03:13:17;;;;;;;1.50;1.40;;;20.80;66.60;;;;;;5112382;28;20204;-69
2023/07/24 03:15:42;;;;;;;1.45;1.35;;;20.80;66.50;;;;;;5112093;28;20165;-70
2023/07/24 03:18:08;;;;;;;1.50;1.30;;;20.80;66.50;;;;;;5112246;28;20168;-68
2023/07/24 03:20:33;;;;;;;1.52;1.42;;;20.80;66.50;;;;;;5112490;28;20161;-69
2023/07/24 03:22:59;;;;;;;1.20;1.10;;;20.80;66.50;;;;;;5111759;28;20208;-69
2023/07/24 03:25:24;;;;;;;1.77;1.45;;;20.80;66.60;;;;;;5115550;28;20620;-69
2023/07/24 03:27:50;;;;;;;1.30;1.20;;;20.80;66.50;;;;;;5117046;28;20180;-69
2023/07/24 03:30:15;;;;;;;1.65;1.55;;;20.70;66.40;;;;;;5116006;28;20656;-68
2023/07/24 03:32:41;;;;;;;1.30;1.20;;;20.80;66.60;;;;;;5116999;28;20200;-69
2023/07/24 03:35:07;;;;;;;1.25;1.15;;;20.80;66.60;;;;;;5116566;28;20612;-69
2023/07/24 03:37:34;;;;;;;1.40;1.30;;;20.80;66.50;;;;;;5116031;28;20180;-71
2023/07/24 03:39:59;;;;;;;2.08;1.50;;;20.80;66.60;;;;;;5116146;28;20278;-69
2023/07/24 03:42:26;;;;;;;1.25;1.15;;;20.80;66.60;;;;;;5116629;28;20173;-68
2023/07/24 03:44:52;;;;;;;1.55;1.45;;;20.80;66.60;;;;;;5116021;28;20233;-68
2023/07/24 03:47:17;;;;;;;1.80;1.50;;;20.80;66.50;;;;;;5116452;28;20180;-68
2023/07/24 03:49:43;;;;;;;1.63;1.50;;;20.80;66.60;;;;;;5116611;28;20165;-68
2023/07/24 03:52:08;;;;;;;1.40;1.30;;;20.80;66.60;;;;;;5115406;28;20291;-68
2023/07/24 03:54:34;;;;;;;1.27;1.17;;;20.70;66.50;;;;;;5116365;28;20252;-68
2023/07/24 03:56:59;;;;;;;1.60;1.50;;;20.70;66.50;;;;;;5116282;28;20605;-68
2023/07/24 03:59:25;;;;;;;2.00;1.30;;;20.80;66.70;;;;;;5115543;28;20176;-69
2023/07/24 04:01:50;;;;;;;1.23;1.13;;;20.70;66.50;;;;;;5116318;28;20217;-70
2023/07/24 04:04:16;;;;;;;1.80;1.33;;;20.70;66.50;;;;;;5115962;28;20264;-68
2023/07/24 04:06:41;;;;;;;1.27;1.17;;;20.70;66.50;;;;;;5115580;28;20268;-68
2023/07/24 04:09:07;;;;;;;1.33;1.17;;;20.70;66.50;;;;;;5097647;28;20299;-68
2023/07/24 04:11:32;;;;;;;1.52;1.42;;;20.80;66.60;;;;;;5116419;28;20178;-68
2023/07/24 04:13:58;;;;;;;2.70;1.20;;;20.70;66.50;;;;;;5115219;28;20181;-68
2023/07/24 04:16:23;;;;;;;1.35;1.25;;;20.80;66.50;;;;;;5115862;28;20166;-68
2023/07/24 04:18:49;;;;;;;1.40;1.30;;;20.70;66.40;;;;;;5115101;28;20184;-68
2023/07/24 04:21:15;;;;;;;1.50;1.40;;;20.70;66.50;;;;;;5115584;28;20201;-69
2023/07/24 04:23:40;;;;;;;1.35;1.25;;;20.70;67.30;;;;;;5115551;28;20540;-69
2023/07/24 04:26:06;;;;;;;1.40;1.30;;;20.70;66.60;;;;;;5114643;28;20303;-69
2023/07/24 04:28:31;;;;;;;1.63;1.52;;;20.70;66.50;;;;;;5115681;28;20314;-68
2023/07/24 04:31:01;;;;;;;1.23;1.13;;;20.80;66.60;;;;;;5115430;28;20177;-68
2023/07/24 04:33:27;;;;;;;1.70;1.60;;;20.70;66.50;;;;;;5114958;28;20209;-69
2023/07/24 04:35:54;;;;;;;1.63;1.52;;;20.70;67.40;;;;;;5115794;28;20173;-71
2023/07/24 04:38:19;;;;;;;1.35;1.25;;;20.70;66.50;;;;;;5115058;28;20188;-69
2023/07/24 04:40:45;;;;;;;1.20;1.10;;;20.70;66.50;;;;;;5114808;28;20213;-69
2023/07/24 04:43:11;;;;;;;1.52;1.42;;;20.70;66.50;;;;;;5115021;28;20546;-69
2023/07/24 04:45:36;;;;;;;1.98;1.45;;;20.70;66.50;;;;;;5115094;28;20181;-69
2023/07/24 04:48:03;;;;;;;1.33;1.23;;;20.70;66.50;;;;;;5114282;28;20200;-67
2023/07/24 04:50:29;;;;;;;1.60;1.50;;;20.70;66.50;;;;;;5114581;28;20230;-67
2023/07/24 04:52:55;;;;;;;2.22;1.58;;;20.70;66.50;;;;;;5114972;28;20644;-67
2023/07/24 04:55:21;;;;;;;1.58;1.48;;;20.70;66.50;;;;;;5114357;28;20209;-68
2023/07/24 04:57:47;;;;;;;1.70;1.60;;;20.70;67.50;;;;;;5115369;28;20216;-69
2023/07/24 05:00:13;;;;;;;2.00;1.50;;;20.70;66.50;;;;;;5114811;28;20173;-70
2023/07/24 05:02:38;;;;;;;1.40;1.30;;;20.70;66.50;;;;;;5114379;28;20185;-69
2023/07/24 05:05:04;;;;;;;1.27;1.17;;;20.70;66.50;;;;;;5114779;28;20173;-68
2023/07/24 05:07:30;;;;;;;1.60;1.50;;;20.70;66.50;;;;;;5115071;28;20204;-68
2023/07/24 05:09:55;;;;;;;1.50;1.30;;;20.70;66.50;;;;;;5114009;28;20184;-69
2023/07/24 05:12:21;;;;;;;1.50;1.40;;;20.70;66.50;;;;;;5114643;28;20205;-68
2023/07/24 05:14:46;;;;;;;1.38;1.20;;;20.70;66.60;;;;;;5114866;28;20170;-69
2023/07/24 05:17:12;;;;;;;1.50;1.40;;;20.70;66.50;;;;;;5114071;28;20196;-68
2023/07/24 05:19:38;;;;;;;1.23;1.13;;;20.70;66.50;;;;;;5114732;28;20541;-69
2023/07/24 05:22:03;;;;;;;1.17;1.10;;;20.70;66.50;;;;;;5113432;28;20169;-69
2023/07/24 05:24:29;;;;;;;1.50;1.40;;;20.70;66.50;;;;;;5114599;28;20626;-68
2023/07/24 05:26:54;;;;;;;1.60;1.50;;;20.70;66.50;;;;;;5114621;28;20174;-69
2023/07/24 05:29:20;;;;;;;1.60;1.50;;;20.70;66.50;;;;;;5113735;28;20177;-68
2023/07/24 05:31:45;;;;;;;1.40;1.30;;;20.70;66.50;;;;;;5114456;28;20682;-70
2023/07/24 05:34:11;;;;;;;1.50;1.40;;;20.70;66.40;;;;;;5114061;28;20184;-69
2023/07/24 05:36:37;;;;;;;1.30;1.20;;;20.70;66.50;;;;;;5113546;28;20165;-70
2023/07/24 05:39:02;;;;;;;1.63;1.30;;;20.70;66.50;;;;;;5113851;28;20185;-68
2023/07/24 05:41:28;;;;;;;1.63;1.40;;;20.70;66.50;;;;;;5114500;28;20256;-69
2023/07/24 05:43:53;;;;;;;1.55;1.38;;;20.70;66.50;;;;;;5113558;28;20267;-70
2023/07/24 05:46:19;;;;;;;1.40;1.30;;;20.70;66.50;;;;;;5113403;28;20218;-68
2023/07/24 05:48:44;;;;;;;1.65;1.45;;;20.70;66.50;;;;;;5113830;28;20184;-68
2023/07/24 05:51:10;;;;;;;1.42;1.33;;;20.70;66.50;;;;;;5113073;28;20181;-68
2023/07/24 05:53:36;;;;;;;1.50;1.40;;;20.70;66.40;;;;;;5113893;28;20289;-68
2023/07/24 05:56:04;;;;;;;1.60;1.50;;;20.70;67.30;;;;;;5114064;28;20215;-68
2023/07/24 05:58:30;;;;;;;1.55;1.30;;;20.80;66.50;;;;;;5113326;28;20604;-69
2023/07/24 06:00:55;;;;;;;1.50;1.40;;;20.70;66.40;;;;;;5113404;28;20196;-71
2023/07/24 06:03:22;;;;;;;1.40;1.30;;;20.70;66.30;;;;;;5113644;28;20172;-69
2023/07/24 06:05:52;;;;;;;1.20;1.10;;;20.80;66.40;;;;;;5113004;28;20253;-69
2023/07/24 06:08:18;;;;;;;1.70;1.60;;;20.70;66.30;;;;;;5113758;28;20173;-68
2023/07/24 06:10:45;;;;;;;1.40;1.30;;;20.70;66.80;;;;;;5114006;28;20173;-68
2023/07/24 06:13:11;;;;;;;1.48;1.38;;;20.70;66.30;;;;;;5094865;28;20269;-68
2023/07/24 06:15:36;;;;;;;1.73;1.42;;;20.80;66.40;;;;;;5113589;28;20580;-69
2023/07/24 06:18:02;;;;;;;1.60;1.50;;;20.80;66.40;;;;;;5113395;28;20177;-68
2023/07/24 06:20:27;;;;;;;2.58;1.67;;;20.70;66.30;;;;;;5112785;28;20165;-68
2023/07/24 06:22:53;;;;;;;1.63;1.52;;;20.70;66.40;;;;;;5113747;28;20531;-69
2023/07/24 06:25:18;;;;;;;1.65;1.55;;;20.80;66.50;;;;;;5112308;28;20656;-69
2023/07/24 06:27:44;;;;;;;1.65;1.48;;;20.80;66.50;;;;;;5113106;28;20185;-69
2023/07/24 06:30:09;;;;;;;2.40;1.83;;;20.80;66.50;;;;;;5112994;28;20173;-68
2023/07/24 06:32:35;;;;;;;2.28;1.73;;;20.80;66.40;;;;;;5112533;28;20209;-69
2023/07/24 06:35:01;;;;;;;1.80;1.63;;;20.80;66.50;;;;;;5112987;28;20169;-69
2023/07/24 06:37:26;;;;;;;1.42;1.33;;;20.80;66.40;;;;;;5113370;28;20169;-70
2023/07/24 06:39:52;;;;;;;1.65;1.55;;;20.80;66.40;;;;;;5112422;28;20365;-71
2023/07/24 06:42:17;;;;;;;1.75;1.65;;;20.80;66.30;;;;;;5113191;28;20177;-66
2023/07/24 06:44:43;;;;;;;3.15;1.40;;;20.80;66.40;;;;;;5113243;28;20173;-66
2023/07/24 06:47:08;;;;;;;2.22;1.60;;;20.90;66.30;;;;;;5112137;28;20631;-64
2023/07/24 06:49:34;;;;;;;1.92;1.75;;;20.80;66.30;;;;;;5112965;28;20640;-63
2023/07/24 06:51:59;;;;;;;3.03;1.70;;;20.90;66.50;;;;;;5112723;28;20633;-63
2023/07/24 06:54:28;;;;;;;2.63;1.90;;;20.80;66.50;;;;;;5112337;28;20173;-63
2023/07/24 06:56:53;;;;;;;3.58;1.83;;;20.90;66.70;;;;;;5112774;28;20181;-67
2023/07/24 06:59:22;;;;;;;5.45;1.83;;;20.90;66.70;;;;;;5111632;28;20168;-64
2023/07/24 07:01:47;;;;;;;4.00;2.03;;;20.90;66.60;;;;;;5112456;28;20176;-65
2023/07/24 07:04:13;;;;;;;2.33;1.80;;;21.00;66.60;;;;;;5112554;28;20170;-64
2023/07/24 07:06:38;;;;;;;4.47;1.80;;;21.00;66.50;;;;;;5113117;28;20169;-64
2023/07/24 07:09:05;;;;;;;5.53;2.00;;;21.00;66.70;;;;;;5112071;28;20165;-65
2023/07/24 07:11:33;;;;;;;4.43;1.80;;;21.00;66.90;;;;;;5112883;28;20212;-65
2023/07/24 07:13:59;;;;;;;3.25;1.88;;;20.90;67.50;;;;;;5112508;28;20212;-65
2023/07/24 07:16:24;;;;;;;2.42;1.48;;;21.00;66.60;;;;;;5111650;28;20177;-65
2023/07/24 07:18:50;;;;;;;3.65;1.90;;;20.90;66.50;;;;;;5112638;28;20686;-64
2023/07/24 07:21:18;;;;;;;3.13;1.70;;;21.00;66.60;;;;;;5112287;28;20173;-65
2023/07/24 07:23:43;;;;;;;2.47;1.95;;;20.90;66.60;;;;;;5112090;28;20173;-65
2023/07/24 07:26:09;;;;;;;4.18;2.20;;;21.00;66.60;;;;;;5112347;28;20654;-64
2023/07/24 07:28:35;;;;;;;3.80;1.98;;;21.00;67.40;;;;;;5112035;28;20692;-64
2023/07/24 07:31:00;;;;;;;3.53;1.95;;;21.10;66.50;;;;;;5112342;28;20520;-65
2023/07/24 07:33:26;;;;;;;4.60;2.15;;;21.10;66.40;;;;;;5112591;28;20213;-65
2023/07/24 07:35:51;;;;;;;5.35;2.40;;;21.10;66.60;;;;;;5112320;28;20183;-66
2023/07/24 07:38:17;;;;;;;3.42;1.83;;;21.10;66.50;;;;;;5112563;28;20179;-66
2023/07/24 07:40:42;;;;;;;2.20;1.70;;;21.10;66.60;;;;;;5112069;28;20239;-66
2023/07/24 07:43:08;;;;;;;5.38;1.92;;;21.10;66.50;;;;;;5111494;28;20596;-65
2023/07/24 07:45:34;;;;;;;3.08;1.88;;;21.10;66.40;;;;;;5112283;28;20164;-64
2023/07/24 07:47:59;;;;;;;3.03;2.03;;;21.10;66.30;;;;;;5112147;28;20181;-64
2023/07/24 07:50:25;;;;;;;3.22;2.30;;;21.20;66.40;;;;;;5111883;28;20632;-64
2023/07/24 07:52:51;;;;;;;3.10;2.13;;;21.10;66.20;;;;;;5112226;28;20578;-64
2023/07/24 07:55:18;;;;;;;4.57;2.25;;;21.10;66.30;;;;;;5112192;28;20169;-64
2023/07/24 07:57:43;;;;;;;2.10;1.90;;;21.20;66.40;;;;;;5111785;28;20179;-65
2023/07/24 08:00:09;;;;;;;2.28;2.08;;;21.20;66.40;;;;;;5112032;28;20165;-66
2023/07/24 08:02:35;;;;;;;2.70;2.10;;;21.20;66.50;;;;;;5112181;28;20200;-65
2023/07/24 08:05:00;;;;;;;3.17;2.33;;;21.10;66.40;;;;;;5111468;28;20169;-65
2023/07/24 08:07:26;;;;;;;3.58;2.42;;;21.20;66.30;;;;;;5112275;28;20230;-64
2023/07/24 08:09:51;;;;;;;2.28;1.98;;;21.20;66.10;;;;;;5112727;28;20184;-64
2023/07/24 08:12:17;;;;;;;2.65;2.30;;;21.20;66.10;;;;;;5115122;28;20213;-64
2023/07/24 08:14:42;;;;;;;4.20;2.60;;;21.20;66.20;;;;;;5115983;28;20256;-64
2023/07/24 08:17:08;;;;;;;3.25;2.40;;;21.20;66.20;;;;;;5115628;28;20534;-65
2023/07/24 08:19:34;;;;;;;2.40;2.20;;;21.20;66.40;;;;;;5115150;28;20208;-64
2023/07/24 08:21:59;;;;;;;4.95;2.22;;;21.10;66.40;;;;;;5115832;28;20184;-65
2023/07/24 08:24:25;;;;;;;3.97;2.65;;;21.20;66.60;;;;;;5115873;28;20180;-65
2023/07/24 08:26:50;;;;;;;3.42;2.35;;;21.10;66.50;;;;;;5115409;28;20169;-65
2023/07/24 08:29:16;;;;;;;2.95;2.25;;;21.10;66.60;;;;;;5115521;28;20169;-64
2023/07/24 08:31:41;;;;;;;2.50;2.30;;;21.10;66.50;;;;;;5097352;28;20177;-65
2023/07/24 08:34:10;;;;;;;3.45;2.45;;;21.20;66.30;;;;;;5114967;28;20486;-65
2023/07/24 08:36:37;;;;;;;4.35;2.22;;;21.20;66.20;;;;;;5115818;28;20178;-66
2023/07/24 08:39:03;;;;;;;2.55;2.30;;;21.30;65.90;;;;;;5114443;28;20173;-66
2023/07/24 08:41:29;;;;;;;2.60;2.40;;;21.30;65.90;;;;;;5115545;28;20176;-65
2023/07/24 08:43:55;;;;;;;2.85;2.55;;;21.30;65.90;;;;;;5115477;28;20177;-65
2023/07/24 08:46:20;;;;;;;4.00;2.75;;;21.40;65.90;;;;;;5096356;28;20177;-64
2023/07/24 08:48:46;;;;;;;3.92;2.80;;;21.40;65.80;;;;;;5097263;28;20306;-64
2023/07/24 08:51:12;;;;;;;3.80;2.55;;;21.40;65.70;;;;;;5097110;28;20178;-65
2023/07/24 08:53:42;;;;;;;4.80;2.70;;;21.40;65.70;;;;;;5114685;28;20225;-64
2023/07/24 08:56:12;;;;;;;3.35;2.70;;;21.40;65.70;;;;;;5114965;28;20628;-65
2023/07/24 08:58:39;;;;;;;3.03;2.38;;;21.40;65.60;;;;;;5115115;28;20264;-65
2023/07/24 09:01:05;;;;;;;3.35;2.75;;;21.40;65.80;;;;;;5113707;28;20197;-66
2023/07/24 09:03:31;;;;;;;2.92;2.60;;;21.40;66.60;;;;;;5114944;28;20278;-65
2023/07/24 09:05:56;;;;;;;2.95;2.63;;;21.40;65.70;;;;;;5096595;28;20636;-66
2023/07/24 09:08:48;;;;;;;2.78;2.50;;;21.40;65.80;;;;;;5114313;28;20176;-65
2023/07/24 09:11:14;;;;;;;3.42;3.08;;;21.40;65.70;;;;;;5111770;28;20265;-65
2023/07/24 09:13:41;;;;;;;3.10;2.80;;;21.50;65.70;;;;;;5114998;28;20258;-65
2023/07/24 09:16:07;;;;;;;3.03;2.80;;;21.50;65.90;;;;;;5113719;28;20177;-65
2023/07/24 09:18:40;;;;;;;4.50;2.90;;;21.50;65.70;;;;;;5114746;28;20608;-65
2023/07/24 09:21:06;;;;;;;2.80;2.60;;;21.60;65.60;;;;;;5113724;28;20173;-66
2023/07/24 09:23:31;;;;;;;3.03;2.72;;;21.70;65.40;;;;;;5113566;28;20180;-65
2023/07/24 09:25:57;;;;;;;3.55;2.80;;;21.70;65.40;;;;;;5114307;28;20169;-66
2023/07/24 09:28:23;;;;;;;2.95;2.45;;;21.70;65.30;;;;;;5113595;28;20176;-66
2023/07/24 09:31:00;;;;;;;3.15;2.65;;;21.60;65.30;;;;;;5096357;28;20179;-66
2023/07/24 09:33:39;;;;;;;2.80;2.60;;;21.70;65.20;;;;;;5114416;28;20212;-66
2023/07/24 09:36:07;;;;;;;4.18;3.03;;;21.70;65.30;;;;;;5113528;28;20173;-67
2023/07/24 09:38:33;;;;;;;3.10;2.80;;;21.60;65.70;;;;;;5114278;28;20185;-66
2023/07/24 09:41:00;;;;;;;5.28;2.70;;;21.60;65.60;;;;;;5114020;28;20265;-66
2023/07/24 09:43:27;;;;;;;3.33;2.80;;;21.60;66.60;;;;;;5113625;28;20212;-65
2023/07/24 09:45:53;;;;;;;2.95;2.75;;;21.60;65.70;;;;;;5118344;27;20201;-63
2023/07/24 09:48:19;;;;;;;3.28;2.92;;;21.50;65.70;;;;;;5129484;27;20289;-62
2023/07/24 09:50:47;;;;;;;3.28;2.97;;;21.50;65.90;;;;;;5113194;28;20252;-63
2023/07/24 09:53:25;;;;;;;3.50;2.78;;;21.60;65.90;;;;;;5123866;27;20204;-62
2023/07/24 09:56:11;;;;;;;3.25;2.95;;;21.60;65.80;;;;;;5133653;27;20191;-64
2023/07/24 09:58:37;;;;;;;3.28;2.97;;;21.60;65.60;;;;;;5133472;27;20183;-64
2023/07/24 10:01:08;;;;;;;3.47;3.17;;;21.70;65.60;;;;;;5129610;27;20197;-64
2023/07/24 10:03:45;;;;;;;3.22;2.90;;;21.60;65.60;;;;;;5113091;28;20180;-65
2023/07/24 10:06:11;;;;;;;3.35;2.55;;;21.60;65.70;;;;;;5113596;28;20552;-63
2023/07/24 10:08:37;;;;;;;4.00;3.30;;;21.50;65.70;;;;;;5113990;28;20173;-64
2023/07/24 10:11:02;;;;;;;3.08;2.83;;;21.50;65.70;;;;;;5094581;28;20668;-63
2023/07/24 10:13:28;;;;;;;3.75;3.05;;;21.50;65.80;;;;;;5113678;28;20212;-63
2023/07/24 10:15:53;;;;;;;3.30;3.03;;;21.60;65.80;;;;;;5113723;28;20558;-65
2023/07/24 10:18:29;;;;;;;4.00;3.33;;;21.50;65.70;;;;;;5100328;27;20256;-63
2023/07/24 10:21:05;;;;;;;3.25;2.97;;;21.50;65.80;;;;;;5133909;27;20523;-64
2023/07/24 10:23:31;;;;;;;3.60;3.30;;;21.50;66.10;;;;;;5134362;27;20190;-64
2023/07/24 10:26:02;;;;;;;3.65;2.88;;;21.50;67.00;;;;;;5114677;27;20532;-64
2023/07/24 10:28:38;;;;;;;3.60;3.17;;;21.40;66.30;;;;;;5115722;27;20783;-63
2023/07/24 10:31:08;;;;;;;2.72;2.47;;;21.40;66.20;;;;;;5116478;27;20273;-63
2023/07/24 10:33:34;;;;;;;3.58;3.17;;;21.40;66.10;;;;;;5126293;27;20663;-65
2023/07/24 10:36:05;;;;;;;3.38;3.08;;;21.40;66.20;;;;;;5121054;27;20707;-65
2023/07/24 10:38:37;;;;;;;2.90;2.70;;;21.40;65.90;;;;;;5127821;27;20177;-65
2023/07/24 10:41:03;;;;;;;3.30;3.00;;;21.50;65.80;;;;;;5132430;27;20244;-64
2023/07/24 10:43:32;;;;;;;4.53;3.17;;;21.50;65.70;;;;;;5113164;28;20656;-64
2023/07/24 10:45:57;;;;;;;3.70;3.38;;;21.50;65.80;;;;;;5093984;28;20181;-63
2023/07/24 10:48:24;;;;;;;3.42;3.22;;;21.50;65.80;;;;;;5113639;28;20173;-63
2023/07/24 10:50:50;;;;;;;3.10;2.90;;;21.50;65.80;;;;;;5124417;27;20204;-62
2023/07/24 10:53:18;;;;;;;3.83;3.53;;;21.50;65.80;;;;;;5119331;27;20216;-63
2023/07/24 10:55:44;;;;;;;3.72;3.42;;;21.50;65.90;;;;;;5113086;28;20181;-65
2023/07/24 10:58:09;;;;;;;2.95;2.75;;;21.50;65.80;;;;;;5112867;28;20177;-64
2023/07/24 11:00:35;;;;;;;3.88;3.45;;;21.50;65.90;;;;;;5112207;28;20542;-64
2023/07/24 11:03:01;;;;;;;3.72;3.33;;;21.50;65.90;;;;;;5112788;28;20323;-64
2023/07/24 11:05:26;;;;;;;4.38;3.60;;;21.50;65.90;;;;;;5112778;28;20212;-64
2023/07/24 11:07:52;;;;;;;4.47;4.07;;;21.50;65.90;;;;;;5112588;28;20219;-65
2023/07/24 11:10:22;;;;;;;3.80;3.47;;;21.50;65.90;;;;;;5094268;28;20238;-64
2023/07/24 11:12:48;;;;;;;3.72;3.42;;;21.50;65.90;;;;;;5112868;28;20248;-61
2023/07/24 11:15:13;;;;;;;3.78;3.47;;;21.50;65.90;;;;;;5111745;28;20211;-60
2023/07/24 11:17:40;;;;;;;3.95;3.58;;;21.50;65.90;;;;;;5112852;28;20176;-60
2023/07/24 11:20:13;;;;;;;3.95;3.65;;;21.40;65.70;;;;;;5112344;28;20175;-66
2023/07/24 11:22:39;;;;;;;6.20;3.70;;;21.50;65.70;;;;;;5111763;28;20203;-62
2023/07/24 11:25:06;;;;;;;7.95;3.75;;;21.50;65.80;;;;;;5094493;28;20256;-66
2023/07/24 11:27:32;;;;;;;4.13;3.75;;;21.50;65.60;;;;;;5112840;28;20185;-66
2023/07/24 11:29:57;;;;;;;4.07;3.67;;;21.60;65.60;;;;;;5111387;28;20603;-66
2023/07/24 11:32:23;;;;;;;4.63;3.78;;;21.60;65.50;;;;;;5112471;28;20253;-65
2023/07/24 11:34:49;;;;;;;5.75;4.63;;;21.70;65.40;;;;;;5112056;28;20192;-66
2023/07/24 11:37:15;;;;;;;5.75;4.00;;;21.70;65.40;;;;;;5112030;28;20192;-66
2023/07/24 11:39:40;;;;;;;5.05;4.00;;;21.70;65.30;;;;;;5077554;28;20259;-67
2023/07/24 11:42:06;;;;;;;4.03;3.50;;;21.70;65.20;;;;;;5093424;28;20812;-66
2023/07/24 11:44:32;;;;;;;5.57;3.63;;;21.70;65.20;;;;;;5112670;28;20681;-62
2023/07/24 11:47:04;;;;;;;4.18;3.88;;;21.70;65.30;;;;;;5097969;28;20169;-62
2023/07/24 11:49:31;;;;;;;9.23;4.82;;;21.70;65.40;;;;;;5115560;28;20226;-61
2023/07/24 11:52:06;;;;;;;4.45;3.80;;;21.70;65.40;;;;;;5116073;28;20281;-62
2023/07/24 11:54:35;;;;;;;4.72;3.58;;;21.60;65.30;;;;;;5116684;28;20176;-62
2023/07/24 11:57:00;;;;;;;4.30;3.88;;;21.70;65.30;;;;;;5115512;28;20260;-62
2023/07/24 11:59:26;;;;;;;5.57;4.53;;;21.70;65.20;;;;;;5116226;28;20260;-63
2023/07/24 12:01:51;;;;;;;6.75;4.40;;;21.80;65.20;;;;;;5116326;28;20201;-63
2023/07/24 12:04:17;;;;;;;5.63;4.20;;;21.90;64.90;;;;;;5115324;28;20175;-63
2023/07/24 12:06:43;;;;;;;6.43;4.53;;;21.90;64.70;;;;;;5116099;28;20209;-63
2023/07/24 12:09:08;;;;;;;4.88;4.38;;;22.00;64.80;;;;;;5116044;28;20180;-62
2023/07/24 12:11:39;;;;;;;6.18;4.30;;;21.90;64.70;;;;;;5097009;28;20594;-62
2023/07/24 12:14:04;;;;;;;5.40;4.55;;;22.00;64.70;;;;;;5098350;28;20297;-62
2023/07/24 12:16:30;;;;;;;7.05;4.05;;;22.00;64.60;;;;;;5116076;28;20272;-62
2023/07/24 12:18:56;;;;;;;4.68;4.28;;;22.00;64.60;;;;;;5114921;28;20632;-62
2023/07/24 12:21:22;;;;;;;5.22;3.97;;;22.10;64.40;;;;;;5116041;28;20207;-62
2023/07/24 12:23:47;;;;;;;4.25;3.85;;;22.00;64.40;;;;;;5115771;28;20665;-62
2023/07/24 12:26:13;;;;;;;4.97;4.47;;;22.10;65.30;;;;;;5114673;28;20211;-62
2023/07/24 12:28:38;;;;;;;4.57;4.13;;;22.10;64.40;;;;;;5115838;28;20588;-62
2023/07/24 12:31:04;;;;;;;6.97;4.43;;;22.10;64.40;;;;;;5114780;28;20167;-62
2023/07/24 12:33:29;;;;;;;4.20;3.90;;;22.10;64.40;;;;;;5115421;28;20192;-63
2023/07/24 12:35:55;;;;;;;5.03;4.53;;;22.10;64.30;;;;;;5115460;28;20176;-63
2023/07/24 12:38:21;;;;;;;5.18;4.68;;;22.10;64.30;;;;;;5114965;28;20176;-63
2023/07/24 12:40:46;;;;;;;4.63;4.22;;;22.10;64.40;;;;;;5115247;28;20713;-64
2023/07/24 12:43:12;;;;;;;4.47;4.05;;;22.20;64.30;;;;;;5115024;28;20217;-63